createdAt,value
2017-01-20T04:01:00.813Z,1038.13
2017-01-20T04:01:26.469Z,1038.15
2017-01-20T04:01:52.641Z,1038.16
2017-01-20T04:02:18.361Z,1038.14
2017-01-20T04:02:44.348Z,1038.1
2017-01-20T04:03:09.939Z,1038.14
2017-01-20T04:03:35.713Z,1038.11
2017-01-20T04:04:01.296Z,1038.12
2017-01-20T04:04:26.896Z,1038.1
2017-01-20T04:04:52.489Z,1038.13
2017-01-20T04:05:18.240Z,1038.16
2017-01-20T04:05:43.866Z,1038.12
2017-01-20T04:06:09.430Z,1038.14
2017-01-20T04:06:35.172Z,1038.1
2017-01-20T04:07:00.785Z,1038.08
2017-01-20T04:07:26.423Z,1038.09
2017-01-20T04:07:52.049Z,1038.08
2017-01-20T04:08:17.569Z,1038.09
2017-01-20T04:08:43.368Z,1038.08
2017-01-20T04:09:09.166Z,1038.06
2017-01-20T04:09:34.738Z,1038.08
2017-01-20T04:10:00.303Z,1038.07
2017-01-20T04:10:26.011Z,1038.06
2017-01-20T04:10:51.578Z,1038.06
2017-01-20T04:11:17.196Z,1038.06
2017-01-20T04:11:42.796Z,1038.05
2017-01-20T04:12:08.438Z,1038.08
2017-01-20T04:12:34.050Z,1038.06
2017-01-20T04:12:59.607Z,1038.14
2017-01-20T04:13:25.183Z,1038.06
2017-01-20T04:13:50.856Z,1038.11
2017-01-20T04:14:16.428Z,1038.11
2017-01-20T04:14:42.111Z,1038.05
2017-01-20T04:15:07.677Z,1038.1
2017-01-20T04:15:33.263Z,1038.08
2017-01-20T04:15:58.906Z,1038.08
2017-01-20T04:16:24.474Z,1038.07
2017-01-20T04:16:50.256Z,1038.06
2017-01-20T04:17:15.788Z,1038.06
2017-01-20T04:17:41.351Z,1038.07
2017-01-20T04:18:06.934Z,1038.06
2017-01-20T04:18:32.587Z,1038.05
2017-01-20T04:18:58.183Z,1038.07
2017-01-20T04:19:23.744Z,1038.07
2017-01-20T04:19:49.391Z,1038.05
2017-01-20T04:20:15.062Z,1038.09
2017-01-20T04:20:40.624Z,1038.1
2017-01-20T04:21:06.321Z,1038.07
2017-01-20T04:21:32.004Z,1038.1
2017-01-20T04:21:57.661Z,1038.06
2017-01-20T04:22:23.307Z,1038.04
2017-01-20T04:22:48.906Z,1038.05
2017-01-20T04:23:14.535Z,1038.06
2017-01-20T04:23:40.363Z,1038.04
2017-01-20T04:24:06.735Z,1038.07
2017-01-20T04:24:32.320Z,1038.04
2017-01-20T04:24:57.945Z,1038.04
2017-01-20T04:25:23.546Z,1038.02
2017-01-20T04:25:49.132Z,1038.03
2017-01-20T04:26:14.697Z,1038.04
2017-01-20T04:26:40.403Z,1037.99
2017-01-20T04:27:05.985Z,1037.99
2017-01-20T04:27:31.536Z,1038
2017-01-20T04:27:57.178Z,1038.01
2017-01-20T04:28:22.752Z,1037.99
2017-01-20T04:29:36.416Z,1037.98
2017-01-20T04:30:02.098Z,1037.98
2017-01-20T04:30:27.693Z,1037.94
2017-01-20T04:30:53.381Z,1038
2017-01-20T04:31:18.938Z,1037.98
2017-01-20T04:31:44.655Z,1037.92
2017-01-20T04:32:10.283Z,1037.94
2017-01-20T04:32:35.848Z,1037.93
2017-01-20T04:33:49.685Z,1037.95
2017-01-20T04:34:15.316Z,1037.94
2017-01-20T04:34:40.904Z,1037.96
2017-01-20T04:35:06.635Z,1037.9
2017-01-20T04:35:32.351Z,1037.94
2017-01-20T04:35:57.917Z,1037.94
2017-01-20T04:36:23.530Z,1037.95
2017-01-20T04:36:49.220Z,1037.93
2017-01-20T04:37:14.804Z,1037.94
2017-01-20T04:37:40.537Z,1037.91
2017-01-20T04:38:06.145Z,1037.95
2017-01-20T04:38:31.709Z,1037.94
2017-01-20T04:38:57.378Z,1037.93
2017-01-20T04:39:22.966Z,1037.93
2017-01-20T04:39:48.628Z,1037.91
2017-01-20T04:40:14.310Z,1037.88
2017-01-20T04:40:39.993Z,1037.88
2017-01-20T04:41:05.613Z,1037.9
2017-01-20T04:41:31.241Z,1037.88
2017-01-20T04:41:56.838Z,1037.9
2017-01-20T04:42:22.508Z,1037.85
2017-01-20T04:42:48.055Z,1037.88
2017-01-20T04:43:13.647Z,1037.86
2017-01-20T04:43:39.279Z,1037.94
2017-01-20T04:44:04.881Z,1037.91
2017-01-20T04:44:30.514Z,1037.89
2017-01-20T04:44:56.124Z,1037.89
2017-01-20T04:45:21.906Z,1037.9
2017-01-20T04:45:47.566Z,1037.87
2017-01-20T04:46:13.151Z,1037.88
2017-01-20T04:46:38.809Z,1037.89
2017-01-20T04:47:04.448Z,1037.88
2017-01-20T04:47:30.158Z,1037.87
2017-01-20T04:47:55.842Z,1037.89
2017-01-20T04:48:21.645Z,1037.85
2017-01-20T04:48:47.221Z,1037.86
2017-01-20T04:49:12.791Z,1037.92
2017-01-20T04:49:38.419Z,1037.85
2017-01-20T04:50:03.987Z,1037.86
2017-01-20T04:50:29.586Z,1037.87
2017-01-20T04:50:55.211Z,1037.9
2017-01-20T04:51:20.827Z,1037.86
2017-01-20T04:51:46.418Z,1037.83
2017-01-20T04:52:12.017Z,1037.78
2017-01-20T04:52:37.676Z,1037.84
2017-01-20T04:53:03.589Z,1037.79
2017-01-20T04:53:29.144Z,1037.79
2017-01-20T04:53:54.794Z,1037.82
2017-01-20T04:54:20.444Z,1037.77
2017-01-20T04:54:45.933Z,1037.82
2017-01-20T04:55:11.487Z,1037.79
2017-01-20T04:55:37.106Z,1037.82
2017-01-20T04:56:02.730Z,1037.8
2017-01-20T04:56:28.295Z,1037.78
2017-01-20T04:56:53.915Z,1037.75
2017-01-20T04:57:19.494Z,1037.78
2017-01-20T04:57:45.047Z,1037.77
2017-01-20T04:58:10.695Z,1037.79
2017-01-20T04:58:36.322Z,1037.75
2017-01-20T04:59:01.978Z,1037.8
2017-01-20T04:59:27.549Z,1037.76
2017-01-20T04:59:53.137Z,1037.8
2017-01-20T05:00:18.809Z,1037.77
2017-01-20T05:00:44.362Z,1037.79
2017-01-20T05:01:10.036Z,1037.77
2017-01-20T05:01:35.726Z,1037.78
2017-01-20T05:02:01.375Z,1037.77
2017-01-20T05:02:27.063Z,1037.79
2017-01-20T05:02:52.764Z,1037.83
2017-01-20T05:04:01.051Z,1037.79
2017-01-20T05:04:26.748Z,1037.79
2017-01-20T05:04:52.321Z,1037.81
2017-01-20T05:05:17.993Z,1037.78
2017-01-20T05:05:43.604Z,1037.81
2017-01-20T05:06:09.169Z,1037.76
2017-01-20T05:06:34.742Z,1037.74
2017-01-20T05:07:00.311Z,1037.75
2017-01-20T05:07:25.893Z,1037.76
2017-01-20T05:07:51.543Z,1037.79
2017-01-20T05:08:17.157Z,1037.76
2017-01-20T05:08:42.796Z,1037.72
2017-01-20T05:09:08.350Z,1037.77
2017-01-20T05:09:33.988Z,1037.75
2017-01-20T05:09:59.502Z,1037.73
2017-01-20T05:10:25.117Z,1037.75
2017-01-20T05:10:50.755Z,1037.71
2017-01-20T05:11:16.296Z,1037.76
2017-01-20T05:11:41.957Z,1037.75
2017-01-20T05:12:07.544Z,1037.75
2017-01-20T05:12:33.171Z,1037.75
2017-01-20T05:12:58.753Z,1037.74
2017-01-20T05:13:24.323Z,1037.75
2017-01-20T05:13:49.906Z,1037.71
2017-01-20T05:14:15.479Z,1037.73
2017-01-20T05:15:29.285Z,1037.73
2017-01-20T05:15:54.881Z,1037.72
2017-01-20T05:16:20.442Z,1037.75
2017-01-20T05:16:46.149Z,1037.74
2017-01-20T05:17:11.790Z,1037.78
2017-01-20T05:17:37.381Z,1037.8
2017-01-20T05:18:03.068Z,1037.76
2017-01-20T05:18:28.652Z,1037.74
2017-01-20T05:18:54.267Z,1037.78
2017-01-20T05:19:19.839Z,1037.76
2017-01-20T05:19:45.406Z,1037.72
2017-01-20T05:20:11.121Z,1037.72
2017-01-20T05:20:36.785Z,1037.7
2017-01-20T05:21:02.348Z,1037.69
2017-01-20T05:21:28.030Z,1037.7
2017-01-20T05:21:53.687Z,1037.7
2017-01-20T05:22:19.529Z,1037.68
2017-01-20T05:23:38.310Z,1037.65
2017-01-20T05:24:04.114Z,1037.67
2017-01-20T05:24:29.684Z,1037.66
2017-01-20T05:24:55.255Z,1037.7
2017-01-20T05:25:20.883Z,1037.7
2017-01-20T05:25:46.538Z,1037.7
2017-01-20T05:26:12.360Z,1037.67
2017-01-20T05:26:37.966Z,1037.69
2017-01-20T05:27:03.512Z,1037.68
2017-01-20T05:27:29.124Z,1037.64
2017-01-20T05:27:54.688Z,1037.74
2017-01-20T05:28:20.337Z,1037.68
2017-01-20T05:28:45.996Z,1037.7
2017-01-20T05:29:11.589Z,1037.67
2017-01-20T05:29:37.171Z,1037.7
2017-01-20T05:30:02.726Z,1037.66
2017-01-20T05:30:28.437Z,1037.69
2017-01-20T05:30:54.082Z,1037.71
2017-01-20T05:31:19.715Z,1037.69
2017-01-20T05:31:45.295Z,1037.74
2017-01-20T05:32:10.853Z,1037.71
2017-01-20T05:32:36.630Z,1037.69
2017-01-20T05:33:02.271Z,1037.66
2017-01-20T05:33:27.849Z,1037.69
2017-01-20T05:33:53.539Z,1037.68
2017-01-20T05:34:19.125Z,1037.68
2017-01-20T05:34:44.733Z,1037.67
2017-01-20T05:35:10.415Z,1037.67
2017-01-20T05:35:36.027Z,1037.66
2017-01-20T05:36:01.703Z,1037.66
2017-01-20T05:36:27.337Z,1037.67
2017-01-20T05:36:52.924Z,1037.7
2017-01-20T05:37:18.556Z,1037.68
2017-01-20T05:37:44.123Z,1037.66
2017-01-20T05:38:09.691Z,1037.69
2017-01-20T05:38:35.356Z,1037.67
2017-01-20T05:39:00.907Z,1037.69
2017-01-20T05:39:26.608Z,1037.65
2017-01-20T05:39:52.221Z,1037.65
2017-01-20T05:40:17.924Z,1037.63
2017-01-20T05:40:43.590Z,1037.66
2017-01-20T05:41:10.231Z,1037.66
2017-01-20T05:41:35.811Z,1037.66
2017-01-20T05:42:01.377Z,1037.66
2017-01-20T05:42:26.939Z,1037.67
2017-01-20T05:42:52.574Z,1037.7
2017-01-20T05:43:18.224Z,1037.66
2017-01-20T05:43:43.814Z,1037.68
2017-01-20T05:44:09.420Z,1037.71
2017-01-20T05:44:34.970Z,1037.68
2017-01-20T05:45:00.627Z,1037.69
2017-01-20T05:45:26.284Z,1037.66
2017-01-20T05:45:52.012Z,1037.67
2017-01-20T05:46:17.662Z,1037.69
2017-01-20T05:46:43.291Z,1037.69
2017-01-20T05:47:08.884Z,1037.67
2017-01-20T05:47:34.459Z,1037.72
2017-01-20T05:48:00.039Z,1037.68
2017-01-20T05:48:25.641Z,1037.64
2017-01-20T05:48:51.209Z,1037.68
2017-01-20T05:49:16.882Z,1037.65
2017-01-20T05:49:42.469Z,1037.63
2017-01-20T05:50:08.059Z,1037.68
2017-01-20T05:50:33.691Z,1037.69
2017-01-20T05:50:59.284Z,1037.66
2017-01-20T05:51:24.848Z,1037.68
2017-01-20T05:51:50.508Z,1037.69
2017-01-20T05:52:16.094Z,1037.71
2017-01-20T05:52:41.758Z,1037.73
2017-01-20T05:53:07.408Z,1037.69
2017-01-20T05:53:33.013Z,1037.69
2017-01-20T05:53:58.676Z,1037.71
2017-01-20T05:54:24.242Z,1037.73
2017-01-20T05:54:49.884Z,1037.73
2017-01-20T05:55:15.493Z,1037.7
2017-01-20T05:55:41.029Z,1037.69
2017-01-20T05:56:06.634Z,1037.71
2017-01-20T05:56:32.196Z,1037.73
2017-01-20T05:56:57.807Z,1037.69
2017-01-20T05:57:23.445Z,1037.71
2017-01-20T05:57:49.078Z,1037.67
2017-01-20T05:58:14.646Z,1037.72
2017-01-20T05:58:40.240Z,1037.72
2017-01-20T05:59:05.901Z,1037.72
2017-01-20T05:59:31.539Z,1037.74
2017-01-20T05:59:57.078Z,1037.73
2017-01-20T06:00:22.663Z,1037.75
2017-01-20T06:00:48.332Z,1037.79
2017-01-20T06:01:13.968Z,1037.77
2017-01-20T06:01:39.527Z,1037.76
2017-01-20T06:02:05.070Z,1037.75
2017-01-20T06:02:30.634Z,1037.76
2017-01-20T06:02:56.190Z,1037.76
2017-01-20T06:03:22.416Z,1037.77
2017-01-20T06:03:48.057Z,1037.78
2017-01-20T06:04:13.682Z,1037.77
2017-01-20T06:04:39.219Z,1037.77
2017-01-20T06:05:04.884Z,1037.81
2017-01-20T06:05:30.466Z,1037.83
2017-01-20T06:05:56.038Z,1037.8
2017-01-20T06:06:21.611Z,1037.77
2017-01-20T06:06:47.184Z,1037.81
2017-01-20T06:07:12.737Z,1037.83
2017-01-20T06:07:38.421Z,1037.78
2017-01-20T06:08:04.270Z,1037.78
2017-01-20T06:08:29.898Z,1037.78
2017-01-20T06:08:55.481Z,1037.76
2017-01-20T06:09:21.122Z,1037.76
2017-01-20T06:09:46.826Z,1037.76
2017-01-20T06:10:12.515Z,1037.78
2017-01-20T06:10:38.111Z,1037.77
2017-01-20T06:11:03.676Z,1037.78
2017-01-20T06:11:29.276Z,1037.78
2017-01-20T06:11:54.940Z,1037.74
2017-01-20T06:12:20.507Z,1037.79
2017-01-20T06:12:46.100Z,1037.75
2017-01-20T06:13:11.877Z,1037.77
2017-01-20T06:13:37.572Z,1037.75
2017-01-20T06:14:03.179Z,1037.76
2017-01-20T06:14:28.733Z,1037.77
2017-01-20T06:14:54.368Z,1037.74
2017-01-20T06:15:20.145Z,1037.74
2017-01-20T06:15:45.745Z,1037.74
2017-01-20T06:16:11.294Z,1037.76
2017-01-20T06:16:36.868Z,1037.75
2017-01-20T06:17:02.607Z,1037.77
2017-01-20T06:17:28.230Z,1037.73
2017-01-20T06:17:53.806Z,1037.72
2017-01-20T06:18:19.407Z,1037.73
2017-01-20T06:18:45.079Z,1037.75
2017-01-20T06:19:10.646Z,1037.74
2017-01-20T06:19:37.194Z,1037.72
2017-01-20T06:20:02.823Z,1037.75
2017-01-20T06:20:28.417Z,1037.74
2017-01-20T06:20:54.881Z,1037.73
2017-01-20T06:21:20.468Z,1037.73
2017-01-20T06:21:46.119Z,1037.74
2017-01-20T06:22:11.718Z,1037.72
2017-01-20T06:22:39.047Z,1037.77
2017-01-20T06:23:04.625Z,1037.77
2017-01-20T06:23:30.263Z,1037.76
2017-01-20T06:23:55.927Z,1037.76
2017-01-20T06:24:21.480Z,1037.79
2017-01-20T06:24:47.145Z,1037.72
2017-01-20T06:25:12.742Z,1037.77
2017-01-20T06:25:38.319Z,1037.72
2017-01-20T06:26:03.883Z,1037.74
2017-01-20T06:26:29.420Z,1037.77
2017-01-20T06:26:55.009Z,1037.76
2017-01-20T06:27:20.577Z,1037.77
2017-01-20T06:27:46.283Z,1037.75
2017-01-20T06:28:11.889Z,1037.77
2017-01-20T06:28:37.393Z,1037.77
2017-01-20T06:29:03.157Z,1037.72
2017-01-20T06:29:28.737Z,1037.73
2017-01-20T06:29:55.184Z,1037.73
2017-01-20T06:30:20.720Z,1037.72
2017-01-20T06:30:46.324Z,1037.74
2017-01-20T06:31:11.906Z,1037.76
2017-01-20T06:31:37.447Z,1037.73
2017-01-20T06:32:03.026Z,1037.76
2017-01-20T06:32:28.677Z,1037.72
2017-01-20T06:32:54.250Z,1037.79
2017-01-20T06:33:19.860Z,1037.75
2017-01-20T06:33:45.542Z,1037.81
2017-01-20T06:34:11.233Z,1037.79
2017-01-20T06:34:36.808Z,1037.81
2017-01-20T06:35:02.496Z,1037.8
2017-01-20T06:35:28.100Z,1037.8
2017-01-20T06:35:53.697Z,1037.77
2017-01-20T06:36:19.381Z,1037.77
2017-01-20T06:36:44.954Z,1037.77
2017-01-20T06:37:11.134Z,1037.84
2017-01-20T06:37:36.789Z,1037.81
2017-01-20T06:38:02.402Z,1037.82
2017-01-20T06:38:27.967Z,1037.83
2017-01-20T06:38:53.714Z,1037.83
2017-01-20T06:39:19.308Z,1037.83
2017-01-20T06:39:44.889Z,1037.78
2017-01-20T06:40:10.493Z,1037.8
2017-01-20T06:40:36.156Z,1037.79
2017-01-20T06:41:01.754Z,1037.75
2017-01-20T06:41:27.318Z,1037.82
2017-01-20T06:41:52.892Z,1037.79
2017-01-20T06:42:18.742Z,1037.82
2017-01-20T06:42:44.337Z,1037.78
2017-01-20T06:43:09.904Z,1037.79
2017-01-20T06:43:35.577Z,1037.77
2017-01-20T06:44:01.220Z,1037.78
2017-01-20T06:45:04.636Z,1037.76
2017-01-20T06:45:30.395Z,1037.78
2017-01-20T06:45:55.948Z,1037.78
2017-01-20T06:47:09.812Z,1037.76
2017-01-20T06:47:35.513Z,1037.76
2017-01-20T06:48:01.078Z,1037.77
2017-01-20T06:48:26.683Z,1037.76
2017-01-20T06:48:52.299Z,1037.77
2017-01-20T06:49:17.846Z,1037.77
2017-01-20T06:49:43.443Z,1037.83
2017-01-20T06:50:09.006Z,1037.78
2017-01-20T06:50:34.644Z,1037.81
2017-01-20T06:51:00.207Z,1037.76
2017-01-20T06:51:25.762Z,1037.77
2017-01-20T06:51:51.368Z,1037.76
2017-01-20T06:52:54.747Z,1037.77
2017-01-20T06:53:20.508Z,1037.78
2017-01-20T06:53:46.068Z,1037.8
2017-01-20T06:54:11.626Z,1037.78
2017-01-20T06:54:37.195Z,1037.81
2017-01-20T06:55:02.892Z,1037.78
2017-01-20T06:55:28.555Z,1037.77
2017-01-20T06:55:54.129Z,1037.76
2017-01-20T06:56:20.626Z,1037.77
2017-01-20T06:56:46.286Z,1037.8
2017-01-20T06:57:11.862Z,1037.76
2017-01-20T06:57:37.479Z,1037.78
2017-01-20T06:58:03.017Z,1037.76
2017-01-20T06:58:28.716Z,1037.74
2017-01-20T06:58:54.292Z,1037.74
2017-01-20T06:59:19.966Z,1037.75
2017-01-20T06:59:45.839Z,1037.75
2017-01-20T07:00:11.451Z,1037.76
2017-01-20T07:00:37.116Z,1037.75
2017-01-20T07:01:35.245Z,1037.77
2017-01-20T07:02:00.795Z,1037.78
2017-01-20T07:02:26.352Z,1037.77
2017-01-20T07:02:52.100Z,1037.78
2017-01-20T07:03:17.662Z,1037.82
2017-01-20T07:03:43.216Z,1037.77
2017-01-20T07:04:08.776Z,1037.77
2017-01-20T07:04:34.345Z,1037.8
2017-01-20T07:04:59.897Z,1037.8
2017-01-20T07:05:25.451Z,1037.77
2017-01-20T07:05:51.016Z,1037.79
2017-01-20T07:06:16.590Z,1037.79
2017-01-20T07:06:42.151Z,1037.79
2017-01-20T07:07:07.699Z,1037.81
2017-01-20T07:07:33.256Z,1037.81
2017-01-20T07:07:58.793Z,1037.85
2017-01-20T07:08:24.361Z,1037.84
2017-01-20T07:08:49.949Z,1037.86
2017-01-20T07:09:15.590Z,1037.86
2017-01-20T07:09:41.148Z,1037.88
2017-01-20T07:10:07.074Z,1037.87
2017-01-20T07:10:32.707Z,1037.87
2017-01-20T07:10:58.283Z,1037.87
2017-01-20T07:11:23.853Z,1037.85
2017-01-20T07:11:49.439Z,1037.89
2017-01-20T07:12:15.027Z,1037.9
2017-01-20T07:12:40.604Z,1037.83
2017-01-20T07:13:06.180Z,1037.82
2017-01-20T07:13:31.736Z,1037.82
2017-01-20T07:13:57.452Z,1037.77
2017-01-20T07:14:22.997Z,1037.79
2017-01-20T07:14:48.558Z,1037.83
2017-01-20T07:15:14.208Z,1037.82
2017-01-20T07:15:39.832Z,1037.81
2017-01-20T07:16:05.383Z,1037.87
2017-01-20T07:16:30.960Z,1037.84
2017-01-20T07:16:56.624Z,1037.86
2017-01-20T07:17:22.195Z,1037.89
2017-01-20T07:17:47.761Z,1037.88
2017-01-20T07:18:13.416Z,1037.91
2017-01-20T07:18:38.984Z,1037.87
2017-01-20T07:19:04.547Z,1037.86
2017-01-20T07:19:30.128Z,1037.84
2017-01-20T07:19:55.687Z,1037.85
2017-01-20T07:20:21.247Z,1037.84
2017-01-20T07:20:46.811Z,1037.85
2017-01-20T07:21:12.413Z,1037.86
2017-01-20T07:21:37.957Z,1037.82
2017-01-20T07:22:03.573Z,1037.8
2017-01-20T07:22:29.149Z,1037.81
2017-01-20T07:22:54.697Z,1037.83
2017-01-20T07:23:20.373Z,1037.83
2017-01-20T07:23:45.991Z,1037.82
2017-01-20T07:24:11.562Z,1037.84
2017-01-20T07:24:37.210Z,1037.86
2017-01-20T07:25:02.762Z,1037.85
2017-01-20T07:25:28.317Z,1037.85
2017-01-20T07:25:53.899Z,1037.86
2017-01-20T07:26:19.508Z,1037.84
2017-01-20T07:26:45.094Z,1037.9
2017-01-20T07:27:10.655Z,1037.88
2017-01-20T07:27:37.028Z,1037.89
2017-01-20T07:28:40.402Z,1037.89
2017-01-20T07:29:05.975Z,1037.86
2017-01-20T07:29:31.705Z,1037.91
2017-01-20T07:29:57.235Z,1037.86
2017-01-20T07:30:22.788Z,1037.91
2017-01-20T07:30:48.465Z,1037.9
2017-01-20T07:31:14.027Z,1037.9
2017-01-20T07:31:39.593Z,1037.86
2017-01-20T07:32:05.160Z,1037.89
2017-01-20T07:32:30.761Z,1037.87
2017-01-20T07:32:56.320Z,1037.89
2017-01-20T07:33:21.908Z,1037.85
2017-01-20T07:33:47.486Z,1037.85
2017-01-20T07:34:13.048Z,1037.87
2017-01-20T07:34:38.650Z,1037.86
2017-01-20T07:35:04.204Z,1037.86
2017-01-20T07:35:29.793Z,1037.86
2017-01-20T07:35:55.368Z,1037.89
2017-01-20T07:36:20.965Z,1037.9
2017-01-20T07:36:46.524Z,1037.9
2017-01-20T07:37:12.300Z,1037.92
2017-01-20T07:37:37.933Z,1037.93
2017-01-20T07:38:03.495Z,1037.92
2017-01-20T07:38:29.163Z,1037.92
2017-01-20T07:38:54.748Z,1037.93
2017-01-20T07:39:20.315Z,1037.94
2017-01-20T07:39:45.901Z,1037.98
2017-01-20T07:40:11.564Z,1037.96
2017-01-20T07:40:37.327Z,1037.98
2017-01-20T07:41:02.911Z,1038.02
2017-01-20T07:41:28.471Z,1037.95
2017-01-20T07:41:54.205Z,1037.98
2017-01-20T07:42:19.776Z,1037.95
2017-01-20T07:42:45.341Z,1037.97
2017-01-20T07:43:11.012Z,1037.91
2017-01-20T07:43:36.561Z,1037.93
2017-01-20T07:44:02.149Z,1037.9
2017-01-20T07:44:27.721Z,1037.92
2017-01-20T07:44:53.286Z,1037.93
2017-01-20T07:45:18.874Z,1037.92
2017-01-20T07:45:44.408Z,1037.9
2017-01-20T07:46:10.121Z,1037.95
2017-01-20T07:46:35.709Z,1037.97
2017-01-20T07:47:01.263Z,1037.94
2017-01-20T07:47:26.822Z,1037.97
2017-01-20T07:47:52.436Z,1037.93
2017-01-20T07:48:18.007Z,1037.92
2017-01-20T07:48:43.569Z,1037.88
2017-01-20T07:49:09.160Z,1037.91
2017-01-20T07:49:34.718Z,1037.92
2017-01-20T07:50:00.332Z,1037.93
2017-01-20T07:50:25.891Z,1037.91
2017-01-20T07:50:51.445Z,1037.87
2017-01-20T07:51:17.006Z,1037.91
2017-01-20T07:51:42.601Z,1037.85
2017-01-20T07:52:08.177Z,1037.85
2017-01-20T07:52:33.749Z,1037.89
2017-01-20T07:52:59.302Z,1037.86
2017-01-20T07:53:24.863Z,1037.9
2017-01-20T07:53:50.530Z,1037.89
2017-01-20T07:54:16.088Z,1037.88
2017-01-20T07:54:41.653Z,1037.89
2017-01-20T07:55:07.213Z,1037.9
2017-01-20T07:55:32.854Z,1037.86
2017-01-20T07:55:58.425Z,1037.89
2017-01-20T07:56:24.006Z,1037.86
2017-01-20T07:56:49.689Z,1037.92
2017-01-20T07:57:15.263Z,1037.85
2017-01-20T07:57:40.836Z,1037.88
2017-01-20T07:58:06.509Z,1037.91
2017-01-20T07:58:32.065Z,1037.86
2017-01-20T07:58:57.804Z,1037.89
2017-01-20T07:59:23.422Z,1037.9
2017-01-20T07:59:48.963Z,1037.9
2017-01-20T08:00:14.511Z,1037.86
2017-01-20T08:00:40.114Z,1037.89
2017-01-20T08:01:05.738Z,1037.9
2017-01-20T08:01:31.314Z,1037.85
2017-01-20T08:01:56.874Z,1037.87
2017-01-20T08:02:22.566Z,1037.9
2017-01-20T08:02:48.146Z,1037.88
2017-01-20T08:03:13.745Z,1037.88
2017-01-20T08:03:39.383Z,1037.88
2017-01-20T08:04:04.947Z,1037.89
2017-01-20T08:04:30.557Z,1037.91
2017-01-20T08:04:56.122Z,1037.9
2017-01-20T08:05:21.795Z,1037.9
2017-01-20T08:05:47.370Z,1037.91
2017-01-20T08:06:13.015Z,1037.88
2017-01-20T08:06:38.603Z,1037.92
2017-01-20T08:07:04.150Z,1037.93
2017-01-20T08:07:29.702Z,1037.93
2017-01-20T08:07:55.268Z,1037.89
2017-01-20T08:08:20.809Z,1037.88
2017-01-20T08:08:46.451Z,1037.88
2017-01-20T08:09:12.013Z,1037.91
2017-01-20T08:09:37.598Z,1037.93
2017-01-20T08:10:03.171Z,1037.89
2017-01-20T08:10:28.726Z,1037.9
2017-01-20T08:10:54.338Z,1037.91
2017-01-20T08:11:19.953Z,1037.91
2017-01-20T08:11:45.537Z,1037.95
2017-01-20T08:12:11.100Z,1037.97
2017-01-20T08:12:36.675Z,1037.99
2017-01-20T08:13:02.380Z,1037.95
2017-01-20T08:13:27.958Z,1038.02
2017-01-20T08:13:53.510Z,1038
2017-01-20T08:14:19.062Z,1038.03
2017-01-20T08:14:44.640Z,1038.06
2017-01-20T08:15:10.215Z,1038.03
2017-01-20T08:15:35.765Z,1038.03
2017-01-20T08:16:01.379Z,1038.02
2017-01-20T08:16:27.050Z,1038.04
2017-01-20T08:16:52.648Z,1037.98
2017-01-20T08:17:18.235Z,1038
2017-01-20T08:17:43.832Z,1038.03
2017-01-20T08:18:09.395Z,1038.02
2017-01-20T08:18:34.975Z,1038.03
2017-01-20T08:19:00.534Z,1038
2017-01-20T08:19:26.136Z,1038.05
2017-01-20T08:19:51.694Z,1038.02
2017-01-20T08:20:17.261Z,1038.05
2017-01-20T08:20:42.988Z,1038.08
2017-01-20T08:21:08.650Z,1038.08
2017-01-20T08:21:34.216Z,1038.1
2017-01-20T08:21:59.785Z,1038.04
2017-01-20T08:22:25.371Z,1038.09
2017-01-20T08:22:50.925Z,1038.08
2017-01-20T08:23:16.510Z,1038.04
2017-01-20T08:23:42.080Z,1038.08
2017-01-20T08:24:07.794Z,1038.02
2017-01-20T08:24:33.357Z,1038.08
2017-01-20T08:24:58.932Z,1038.07
2017-01-20T08:25:24.576Z,1038.08
2017-01-20T08:25:50.139Z,1038.08
2017-01-20T08:26:15.713Z,1038.11
2017-01-20T08:26:41.371Z,1038.16
2017-01-20T08:27:06.952Z,1038.12
2017-01-20T08:27:32.516Z,1038.14
2017-01-20T08:27:58.167Z,1038.11
2017-01-20T08:28:23.812Z,1038.12
2017-01-20T08:28:49.363Z,1038.18
2017-01-20T08:29:14.962Z,1038.12
2017-01-20T08:29:40.541Z,1038.12
2017-01-20T08:30:06.099Z,1038.14
2017-01-20T08:30:31.676Z,1038.18
2017-01-20T08:30:57.236Z,1038.08
2017-01-20T08:31:23.005Z,1038.17
2017-01-20T08:31:48.568Z,1038.19
2017-01-20T08:32:14.136Z,1038.18
2017-01-20T08:32:39.837Z,1038.18
2017-01-20T08:33:05.397Z,1038.15
2017-01-20T08:33:30.970Z,1038.19
2017-01-20T08:33:56.620Z,1038.18
2017-01-20T08:34:22.193Z,1038.19
2017-01-20T08:34:47.767Z,1038.15
2017-01-20T08:35:13.419Z,1038.12
2017-01-20T08:35:39.000Z,1038.16
2017-01-20T08:36:04.563Z,1038.14
2017-01-20T08:36:30.149Z,1038.12
2017-01-20T08:36:55.712Z,1038.18
2017-01-20T08:37:21.273Z,1038.18
2017-01-20T08:37:46.874Z,1038.18
2017-01-20T08:38:12.457Z,1038.15
2017-01-20T08:38:38.135Z,1038.2
2017-01-20T08:39:03.681Z,1038.18
2017-01-20T08:39:29.251Z,1038.14
2017-01-20T08:39:54.833Z,1038.18
2017-01-20T08:40:20.401Z,1038.2
2017-01-20T08:40:46.036Z,1038.19
2017-01-20T08:41:11.841Z,1038.19
2017-01-20T08:41:37.400Z,1038.17
2017-01-20T08:42:02.978Z,1038.2
2017-01-20T08:42:28.635Z,1038.2
2017-01-20T08:42:54.212Z,1038.22
2017-01-20T08:43:19.771Z,1038.21
2017-01-20T08:43:45.427Z,1038.22
2017-01-20T08:44:11.001Z,1038.25
2017-01-20T08:44:36.593Z,1038.25
2017-01-20T08:45:02.160Z,1038.25
2017-01-20T08:45:27.859Z,1038.27
2017-01-20T08:45:53.406Z,1038.24
2017-01-20T08:46:18.972Z,1038.26
2017-01-20T08:46:44.644Z,1038.24
2017-01-20T08:47:10.212Z,1038.25
2017-01-20T08:47:35.897Z,1038.24
2017-01-20T08:48:01.497Z,1038.22
2017-01-20T08:48:27.049Z,1038.26
2017-01-20T08:48:52.611Z,1038.26
2017-01-20T08:49:18.180Z,1038.22
2017-01-20T08:49:43.971Z,1038.26
2017-01-20T08:50:09.619Z,1038.23
2017-01-20T08:50:35.173Z,1038.21
2017-01-20T08:51:00.737Z,1038.25
2017-01-20T08:51:26.300Z,1038.26
2017-01-20T08:51:51.927Z,1038.26
2017-01-20T08:52:17.515Z,1038.26
2017-01-20T08:52:43.152Z,1038.24
2017-01-20T08:53:08.969Z,1038.24
2017-01-20T08:53:34.683Z,1038.19
2017-01-20T08:54:00.262Z,1038.24
2017-01-20T08:54:25.817Z,1038.21
2017-01-20T08:54:51.380Z,1038.21
2017-01-20T08:55:17.139Z,1038.25
2017-01-20T08:55:42.704Z,1038.24
2017-01-20T08:56:08.264Z,1038.26
2017-01-20T08:56:33.819Z,1038.25
2017-01-20T08:56:59.381Z,1038.27
2017-01-20T08:57:24.969Z,1038.27
2017-01-20T08:57:50.525Z,1038.26
2017-01-20T08:58:16.107Z,1038.27
2017-01-20T08:58:41.672Z,1038.24
2017-01-20T09:00:00.245Z,1038.3
2017-01-20T09:00:25.792Z,1038.27
2017-01-20T09:00:51.477Z,1038.29
2017-01-20T09:01:17.097Z,1038.28
2017-01-20T09:01:42.685Z,1038.31
2017-01-20T09:02:08.277Z,1038.28
2017-01-20T09:02:33.916Z,1038.3
2017-01-20T09:02:59.534Z,1038.27
2017-01-20T09:03:25.125Z,1038.28
2017-01-20T09:03:50.696Z,1038.3
2017-01-20T09:04:16.232Z,1038.3
2017-01-20T09:04:41.860Z,1038.3
2017-01-20T09:05:07.486Z,1038.3
2017-01-20T09:05:33.082Z,1038.25
2017-01-20T09:05:58.692Z,1038.27
2017-01-20T09:06:24.312Z,1038.27
2017-01-20T09:06:49.909Z,1038.29
2017-01-20T09:07:15.497Z,1038.26
2017-01-20T09:07:41.101Z,1038.26
2017-01-20T09:08:06.728Z,1038.27
2017-01-20T09:08:32.296Z,1038.23
2017-01-20T09:08:57.885Z,1038.23
2017-01-20T09:09:23.478Z,1038.23
2017-01-20T09:09:49.073Z,1038.23
2017-01-20T09:10:14.657Z,1038.24
2017-01-20T09:10:40.248Z,1038.23
2017-01-20T09:11:05.815Z,1038.21
2017-01-20T09:11:31.374Z,1038.18
2017-01-20T09:11:56.962Z,1038.25
2017-01-20T09:12:22.662Z,1038.2
2017-01-20T09:12:48.247Z,1038.23
2017-01-20T09:13:13.906Z,1038.21
2017-01-20T09:13:39.508Z,1038.18
2017-01-20T09:14:05.059Z,1038.24
2017-01-20T09:14:30.620Z,1038.23
2017-01-20T09:14:56.243Z,1038.22
2017-01-20T09:15:21.818Z,1038.24
2017-01-20T09:15:47.361Z,1038.27
2017-01-20T09:16:12.922Z,1038.28
2017-01-20T09:16:38.570Z,1038.21
2017-01-20T09:17:04.136Z,1038.26
2017-01-20T09:17:29.698Z,1038.26
2017-01-20T09:17:55.278Z,1038.26
2017-01-20T09:18:20.853Z,1038.24
2017-01-20T09:18:46.463Z,1038.27
2017-01-20T09:19:12.047Z,1038.23
2017-01-20T09:19:37.614Z,1038.23
2017-01-20T09:20:03.234Z,1038.26